Virtual LH

Virtual LH. There's no better way to fly
Since 2013.



AIRPORT MAP

METAR AND TAF INFORMATION

METAR FOR LDDU
ADDS - METARS form results

(1038 UTC 21 January 2019)
Data provider http://aviationweather.gov/metar/data/
 
METAR text: LDDU 211030Z 14008KT 110V190 CAVOK 13/03 Q1015 BECMG 12012KT
Conditions at: LDDU (DUBROVNIK-CILIPI, HR) observed 1030 UTC 21 January 2019
Temperature: 13.0°C (55°F)
Dewpoint: 3.0°C (37°F) [RH = 51%]
Pressure (altimeter): 29.97 inches Hg (1015.0 mb)
Winds: from the SE (140 degrees) at 9 MPH (8 knots; 4.1 m/s)
Visibility: 6 or more miles (10+ km)
Ceiling: ceiling and visibility are OK
Clouds: unknown
Weather: no significant weather observed at this time

METAR text: LDDU 211000Z 12006KT 070V190 CAVOK 13/04 Q1015 BECMG 12012KT
Conditions at: LDDU (DUBROVNIK-CILIPI, HR) observed 1000 UTC 21 January 2019
Temperature: 13.0°C (55°F)
Dewpoint: 4.0°C (39°F) [RH = 54%]
Pressure (altimeter): 29.97 inches Hg (1015.0 mb)
Winds: from the ESE (120 degrees) at 7 MPH (6 knots; 3.1 m/s)
Visibility: 6 or more miles (10+ km)
Ceiling: ceiling and visibility are OK
Clouds: unknown
Weather: no significant weather observed at this time

Forecast for: LDDU (DUBROVNIK-CILIPI, HR)
Text: TAF LDDU 210528Z 2106/2206 06007KT 9999 BKN030 TX12/2112Z TN07/2106Z
Forecast period: 0600 to 1000 UTC 21 January 2019
Forecast type: FROM: standard forecast or significant change
Winds: from the ENE (60 degrees) at 8 MPH (7 knots; 3.6 m/s)
Visibility: 6 or more miles 10+ km)
Ceiling: 3000 feet AGL
Clouds: broken clouds at 3000 feet AGL
Weather: no significant weather forecast for this period
Text: BECMG 2110/2112 12012KT
Forecast period: 1000 UTC 21 January 2019 to 0600 UTC 22 January 2019
Forecast type: BECOMING: Conditions expected to become as follows by 1200 UTC 21 January 2019
Winds: from the ESE (120 degrees) at 14 MPH (12 knots; 6.2 m/s)
Visibility: 6 or more miles 10+ km)
Ceiling: 3000 feet AGL
Clouds: broken clouds at 3000 feet AGL
Weather: no significant weather forecast for this period
Text: PROB30
Forecast period: 2100 UTC 21 January 2019 to 0600 UTC 22 January 2019
Forecast type: TEMPORARY: The following changes expected for less than half the time period
Visibility: 2.49 miles (4.01 km)
Ceiling: unknown
Clouds: missing
Weather: RA  (moderate rain)

RUNWAY INFORMATION

Runway 12 Runway length 10827 ft Runway width 148 ft
Runway elevation 519 ft Runway displaced threshold 488 ft Runway heading 118
Runway 30 Runway length 10827 ft Runway width 148 ft
Runway elevation 484 ft Runway displaced threshold 0 ft Runway heading 298

AIRPORT FREQUENCIES

Type APP Name APP Frequency 123.6 MHZ
Type TWR Name TWR Frequency 129.5 MHZ

AIRPORT NEAR NAVIGATION AIDS

Type NDB Name Dubrovnik Frequency 397 KHZ
Type VOR-DME Name Dubrovnik Frequency 115400 KHZ
Type NDB Name Dubrovnik Frequency 414 KHZ
Type NDB Name Kolocep Frequency 318 KHZ